sensor_id;sensor_type;location;lat;lon;timestamp;temperature;humidity
19359;DHT22;9815;52.334;20.890;2023-03-01T00:01:19;-3.10;99.90
19359;DHT22;9815;52.334;20.890;2023-03-01T00:03:48;-3.10;99.90
19359;DHT22;9815;52.334;20.890;2023-03-01T00:06:16;-3.10;99.90
19359;DHT22;9815;52.334;20.890;2023-03-01T00:08:44;-3.10;99.90
19359;DHT22;9815;52.334;20.890;2023-03-01T00:11:13;-3.10;99.90
19359;DHT22;9815;52.334;20.890;2023-03-01T00:13:42;-3.10;99.90
19359;DHT22;9815;52.334;20.890;2023-03-01T00:16:12;-3.10;99.90
19359;DHT22;9815;52.334;20.890;2023-03-01T00:18:42;-3.10;99.90
19359;DHT22;9815;52.334;20.890;2023-03-01T00:21:11;-3.10;99.90
19359;DHT22;9815;52.334;20.890;2023-03-01T00:23:39;-3.10;99.90
19359;DHT22;9815;52.334;20.890;2023-03-01T00:26:09;-3.10;99.90
19359;DHT22;9815;52.334;20.890;2023-03-01T00:28:39;-3.00;99.90
19359;DHT22;9815;52.334;20.890;2023-03-01T00:31:10;-3.00;99.90
19359;DHT22;9815;52.334;20.890;2023-03-01T00:33:38;-3.00;99.90
19359;DHT22;9815;52.334;20.890;2023-03-01T00:36:09;-3.00;99.90
19359;DHT22;9815;52.334;20.890;2023-03-01T00:38:38;-3.00;99.90
19359;DHT22;9815;52.334;20.890;2023-03-01T00:41:09;-3.00;99.90
19359;DHT22;9815;52.334;20.890;2023-03-01T00:43:37;-3.00;99.90
19359;DHT22;9815;52.334;20.890;2023-03-01T00:46:07;-3.00;99.90
19359;DHT22;9815;52.334;20.890;2023-03-01T00:48:36;-3.00;99.90
19359;DHT22;9815;52.334;20.890;2023-03-01T00:51:05;-3.00;99.90
19359;DHT22;9815;52.334;20.890;2023-03-01T00:53:35;-3.00;99.90
19359;DHT22;9815;52.334;20.890;2023-03-01T00:56:05;-3.00;99.90
19359;DHT22;9815;52.334;20.890;2023-03-01T00:58:34;-2.90;99.90
19359;DHT22;9815;52.334;20.890;2023-03-01T01:01:07;-2.90;99.90
19359;DHT22;9815;52.334;20.890;2023-03-01T01:03:45;-3.00;99.90
19359;DHT22;9815;52.334;20.890;2023-03-01T01:06:18;-3.00;99.90
19359;DHT22;9815;52.334;20.890;2023-03-01T01:08:49;-3.00;99.90
19359;DHT22;9815;52.334;20.890;2023-03-01T01:11:17;-3.00;99.90
19359;DHT22;9815;52.334;20.890;2023-03-01T01:13:47;-3.00;99.90
19359;DHT22;9815;52.334;20.890;2023-03-01T01:16:16;-3.00;99.90
19359;DHT22;9815;52.334;20.890;2023-03-01T01:18:45;-3.00;99.90
19359;DHT22;9815;52.334;20.890;2023-03-01T01:21:15;-3.00;99.90
19359;DHT22;9815;52.334;20.890;2023-03-01T01:23:44;-3.00;99.90
19359;DHT22;9815;52.334;20.890;2023-03-01T01:26:16;-3.00;99.90
19359;DHT22;9815;52.334;20.890;2023-03-01T01:28:44;-3.00;99.90
19359;DHT22;9815;52.334;20.890;2023-03-01T01:31:13;-3.00;99.90
19359;DHT22;9815;52.334;20.890;2023-03-01T01:33:41;-3.00;99.90
19359;DHT22;9815;52.334;20.890;2023-03-01T01:36:10;-3.10;99.90
19359;DHT22;9815;52.334;20.890;2023-03-01T01:38:38;-3.00;99.90
19359;DHT22;9815;52.334;20.890;2023-03-01T01:41:06;-3.00;99.90
19359;DHT22;9815;52.334;20.890;2023-03-01T01:43:38;-3.00;99.90
19359;DHT22;9815;52.334;20.890;2023-03-01T01:46:16;-3.00;99.90
19359;DHT22;9815;52.334;20.890;2023-03-01T01:48:52;-3.00;99.90
19359;DHT22;9815;52.334;20.890;2023-03-01T01:51:25;-3.10;99.90
19359;DHT22;9815;52.334;20.890;2023-03-01T01:53:58;-3.10;99.90
19359;DHT22;9815;52.334;20.890;2023-03-01T01:56:29;-3.10;99.90
19359;DHT22;9815;52.334;20.890;2023-03-01T01:58:59;-3.10;99.90
19359;DHT22;9815;52.334;20.890;2023-03-01T02:01:27;-3.10;99.90
19359;DHT22;9815;52.334;20.890;2023-03-01T02:03:55;-3.10;99.90
19359;DHT22;9815;52.334;20.890;2023-03-01T02:06:27;-3.10;99.90
19359;DHT22;9815;52.334;20.890;2023-03-01T02:08:59;-3.20;99.90
19359;DHT22;9815;52.334;20.890;2023-03-01T02:11:29;-3.10;99.90
19359;DHT22;9815;52.334;20.890;2023-03-01T02:13:58;-3.10;99.90
19359;DHT22;9815;52.334;20.890;2023-03-01T02:16:27;-3.10;99.90
19359;DHT22;9815;52.334;20.890;2023-03-01T02:18:56;-3.10;99.90
19359;DHT22;9815;52.334;20.890;2023-03-01T02:21:33;-3.10;99.90
19359;DHT22;9815;52.334;20.890;2023-03-01T02:24:10;-3.10;99.90
19359;DHT22;9815;52.334;20.890;2023-03-01T02:26:45;-3.10;99.90
19359;DHT22;9815;52.334;20.890;2023-03-01T02:29:16;-3.10;99.90
19359;DHT22;9815;52.334;20.890;2023-03-01T02:31:44;-3.20;99.90
19359;DHT22;9815;52.334;20.890;2023-03-01T02:34:14;-3.20;99.90
19359;DHT22;9815;52.334;20.890;2023-03-01T02:36:45;-3.20;99.90
19359;DHT22;9815;52.334;20.890;2023-03-01T02:39:17;-3.20;99.90
19359;DHT22;9815;52.334;20.890;2023-03-01T02:41:48;-3.20;99.90
19359;DHT22;9815;52.334;20.890;2023-03-01T02:44:18;-3.20;99.90
19359;DHT22;9815;52.334;20.890;2023-03-01T02:46:49;-3.20;99.90
19359;DHT22;9815;52.334;20.890;2023-03-01T02:49:25;-3.20;99.90
19359;DHT22;9815;52.334;20.890;2023-03-01T02:52:23;-3.30;99.90
19359;DHT22;9815;52.334;20.890;2023-03-01T02:54:58;-3.30;99.90
19359;DHT22;9815;52.334;20.890;2023-03-01T02:57:30;-3.30;99.90
19359;DHT22;9815;52.334;20.890;2023-03-01T03:00:04;-3.30;99.90
19359;DHT22;9815;52.334;20.890;2023-03-01T03:02:36;-3.30;99.90
19359;DHT22;9815;52.334;20.890;2023-03-01T03:05:10;-3.20;99.90
19359;DHT22;9815;52.334;20.890;2023-03-01T03:07:41;-3.20;99.90
19359;DHT22;9815;52.334;20.890;2023-03-01T03:10:11;-3.20;99.90
19359;DHT22;9815;52.334;20.890;2023-03-01T03:12:39;-3.20;99.90
19359;DHT22;9815;52.334;20.890;2023-03-01T03:15:10;-3.20;99.90
19359;DHT22;9815;52.334;20.890;2023-03-01T03:17:41;-3.20;99.90
19359;DHT22;9815;52.334;20.890;2023-03-01T03:20:13;-3.20;99.90
19359;DHT22;9815;52.334;20.890;2023-03-01T03:22:46;-3.20;99.90
19359;DHT22;9815;52.334;20.890;2023-03-01T03:25:14;-3.10;99.90
19359;DHT22;9815;52.334;20.890;2023-03-01T03:27:44;-3.10;99.90
19359;DHT22;9815;52.334;20.890;2023-03-01T03:30:16;-3.10;99.90
19359;DHT22;9815;52.334;20.890;2023-03-01T03:32:45;-3.10;99.90
19359;DHT22;9815;52.334;20.890;2023-03-01T03:35:19;-3.10;99.90
19359;DHT22;9815;52.334;20.890;2023-03-01T03:37:49;-3.10;99.90
19359;DHT22;9815;52.334;20.890;2023-03-01T03:40:32;-3.10;99.90
19359;DHT22;9815;52.334;20.890;2023-03-01T03:43:00;-3.20;99.90
19359;DHT22;9815;52.334;20.890;2023-03-01T03:45:29;-3.20;99.90
19359;DHT22;9815;52.334;20.890;2023-03-01T03:48:00;-3.20;99.90
19359;DHT22;9815;52.334;20.890;2023-03-01T03:50:28;-3.20;99.90
19359;DHT22;9815;52.334;20.890;2023-03-01T03:52:56;-3.20;99.90
19359;DHT22;9815;52.334;20.890;2023-03-01T03:55:24;-3.20;99.90
19359;DHT22;9815;52.334;20.890;2023-03-01T03:57:57;-3.20;99.90
19359;DHT22;9815;52.334;20.890;2023-03-01T04:00:30;-3.20;99.90
19359;DHT22;9815;52.334;20.890;2023-03-01T04:02:58;-3.20;99.90
19359;DHT22;9815;52.334;20.890;2023-03-01T04:05:27;-3.20;99.90
19359;DHT22;9815;52.334;20.890;2023-03-01T04:07:55;-3.20;99.90
19359;DHT22;9815;52.334;20.890;2023-03-01T04:10:30;-3.20;99.90
19359;DHT22;9815;52.334;20.890;2023-03-01T04:12:58;-3.20;99.90
19359;DHT22;9815;52.334;20.890;2023-03-01T04:15:26;-3.20;99.90
19359;DHT22;9815;52.334;20.890;2023-03-01T04:17:56;-3.20;99.90
19359;DHT22;9815;52.334;20.890;2023-03-01T04:20:27;-3.20;99.90
19359;DHT22;9815;52.334;20.890;2023-03-01T04:23:01;-3.10;99.90
19359;DHT22;9815;52.334;20.890;2023-03-01T04:25:38;-3.10;99.90
19359;DHT22;9815;52.334;20.890;2023-03-01T04:28:07;-3.10;99.90
19359;DHT22;9815;52.334;20.890;2023-03-01T04:30:35;-3.10;99.90
19359;DHT22;9815;52.334;20.890;2023-03-01T04:33:06;-3.10;99.90
19359;DHT22;9815;52.334;20.890;2023-03-01T04:35:35;-3.10;99.90
19359;DHT22;9815;52.334;20.890;2023-03-01T04:38:04;-3.10;99.90
19359;DHT22;9815;52.334;20.890;2023-03-01T04:40:33;-3.10;99.90
19359;DHT22;9815;52.334;20.890;2023-03-01T04:43:01;-3.10;99.90
19359;DHT22;9815;52.334;20.890;2023-03-01T04:45:29;-3.00;99.90
19359;DHT22;9815;52.334;20.890;2023-03-01T04:47:59;-3.10;99.90
19359;DHT22;9815;52.334;20.890;2023-03-01T04:50:28;-3.00;99.90
19359;DHT22;9815;52.334;20.890;2023-03-01T04:52:56;-3.00;99.90
19359;DHT22;9815;52.334;20.890;2023-03-01T04:55:26;-3.10;99.90
19359;DHT22;9815;52.334;20.890;2023-03-01T04:57:55;-3.00;99.90
19359;DHT22;9815;52.334;20.890;2023-03-01T05:00:23;-3.10;99.90
19359;DHT22;9815;52.334;20.890;2023-03-01T05:02:53;-3.10;99.90
19359;DHT22;9815;52.334;20.890;2023-03-01T05:05:24;-3.10;99.90
19359;DHT22;9815;52.334;20.890;2023-03-01T05:07:55;-3.10;99.90
19359;DHT22;9815;52.334;20.890;2023-03-01T05:10:24;-3.10;99.90
19359;DHT22;9815;52.334;20.890;2023-03-01T05:12:52;-3.10;99.90
19359;DHT22;9815;52.334;20.890;2023-03-01T05:15:20;-3.10;99.90
19359;DHT22;9815;52.334;20.890;2023-03-01T05:17:53;-3.20;99.90
19359;DHT22;9815;52.334;20.890;2023-03-01T05:20:21;-3.20;99.90
19359;DHT22;9815;52.334;20.890;2023-03-01T05:22:51;-3.10;99.90
19359;DHT22;9815;52.334;20.890;2023-03-01T05:25:20;-3.20;99.90
19359;DHT22;9815;52.334;20.890;2023-03-01T05:27:48;-3.20;99.90
19359;DHT22;9815;52.334;20.890;2023-03-01T05:30:18;-3.20;99.90
19359;DHT22;9815;52.334;20.890;2023-03-01T05:32:47;-3.20;99.90
19359;DHT22;9815;52.334;20.890;2023-03-01T05:35:17;-3.20;99.90
19359;DHT22;9815;52.334;20.890;2023-03-01T05:37:47;-3.20;99.90
19359;DHT22;9815;52.334;20.890;2023-03-01T05:40:17;-3.20;99.90
19359;DHT22;9815;52.334;20.890;2023-03-01T05:42:48;-3.20;99.90
19359;DHT22;9815;52.334;20.890;2023-03-01T05:45:17;-3.20;99.90
19359;DHT22;9815;52.334;20.890;2023-03-01T05:47:46;-3.10;99.90
19359;DHT22;9815;52.334;20.890;2023-03-01T05:50:16;-3.10;99.90
19359;DHT22;9815;52.334;20.890;2023-03-01T05:52:46;-3.10;99.90
19359;DHT22;9815;52.334;20.890;2023-03-01T05:55:16;-3.10;99.90
19359;DHT22;9815;52.334;20.890;2023-03-01T05:57:44;-3.00;99.90
19359;DHT22;9815;52.334;20.890;2023-03-01T06:00:16;-3.00;99.90
19359;DHT22;9815;52.334;20.890;2023-03-01T06:02:44;-3.00;99.90
19359;DHT22;9815;52.334;20.890;2023-03-01T06:05:13;-2.90;99.90
19359;DHT22;9815;52.334;20.890;2023-03-01T06:07:42;-2.90;99.90
19359;DHT22;9815;52.334;20.890;2023-03-01T06:10:11;-2.80;99.90
19359;DHT22;9815;52.334;20.890;2023-03-01T06:12:40;-2.80;99.90
19359;DHT22;9815;52.334;20.890;2023-03-01T06:15:11;-2.70;99.90
19359;DHT22;9815;52.334;20.890;2023-03-01T06:17:42;-2.70;99.90
19359;DHT22;9815;52.334;20.890;2023-03-01T06:20:12;-2.60;99.90
19359;DHT22;9815;52.334;20.890;2023-03-01T06:22:41;-2.50;99.90
19359;DHT22;9815;52.334;20.890;2023-03-01T06:25:10;-2.50;99.90
19359;DHT22;9815;52.334;20.890;2023-03-01T06:27:39;-2.40;99.90
19359;DHT22;9815;52.334;20.890;2023-03-01T06:30:08;-2.40;99.90
19359;DHT22;9815;52.334;20.890;2023-03-01T06:32:37;-2.30;99.90
19359;DHT22;9815;52.334;20.890;2023-03-01T06:35:11;-2.20;99.90
19359;DHT22;9815;52.334;20.890;2023-03-01T06:37:39;-2.10;99.90
19359;DHT22;9815;52.334;20.890;2023-03-01T06:40:08;-2.10;99.90
19359;DHT22;9815;52.334;20.890;2023-03-01T06:42:40;-1.90;99.90
19359;DHT22;9815;52.334;20.890;2023-03-01T06:45:10;-1.80;99.90
19359;DHT22;9815;52.334;20.890;2023-03-01T06:47:38;-1.60;99.90
19359;DHT22;9815;52.334;20.890;2023-03-01T06:50:06;-1.40;99.90
19359;DHT22;9815;52.334;20.890;2023-03-01T06:52:36;-1.30;99.90
19359;DHT22;9815;52.334;20.890;2023-03-01T06:55:05;-1.10;99.90
19359;DHT22;9815;52.334;20.890;2023-03-01T06:57:33;-1.00;99.90
19359;DHT22;9815;52.334;20.890;2023-03-01T07:00:01;-0.90;99.90
19359;DHT22;9815;52.334;20.890;2023-03-01T07:02:29;-0.90;99.90
19359;DHT22;9815;52.334;20.890;2023-03-01T07:04:57;-0.80;99.90
19359;DHT22;9815;52.334;20.890;2023-03-01T07:07:25;-0.70;99.90
19359;DHT22;9815;52.334;20.890;2023-03-01T07:09:54;-0.60;99.90
19359;DHT22;9815;52.334;20.890;2023-03-01T07:12:22;-0.60;99.90
19359;DHT22;9815;52.334;20.890;2023-03-01T07:14:50;-0.50;99.90
19359;DHT22;9815;52.334;20.890;2023-03-01T07:17:18;-0.40;99.90
19359;DHT22;9815;52.334;20.890;2023-03-01T07:19:46;-0.40;99.90
19359;DHT22;9815;52.334;20.890;2023-03-01T07:22:14;-0.30;99.90
19359;DHT22;9815;52.334;20.890;2023-03-01T07:24:42;-0.30;99.90
19359;DHT22;9815;52.334;20.890;2023-03-01T07:27:12;-0.20;99.90
19359;DHT22;9815;52.334;20.890;2023-03-01T07:29:40;-0.10;99.90
19359;DHT22;9815;52.334;20.890;2023-03-01T07:32:08;-0.10;99.90
19359;DHT22;9815;52.334;20.890;2023-03-01T07:34:37;0.00;99.90
19359;DHT22;9815;52.334;20.890;2023-03-01T07:37:05;0.10;99.90
19359;DHT22;9815;52.334;20.890;2023-03-01T07:39:33;0.10;99.90
19359;DHT22;9815;52.334;20.890;2023-03-01T07:42:01;0.30;99.90
19359;DHT22;9815;52.334;20.890;2023-03-01T07:44:30;0.40;99.90
19359;DHT22;9815;52.334;20.890;2023-03-01T07:46:58;0.50;99.90
19359;DHT22;9815;52.334;20.890;2023-03-01T07:49:26;0.50;99.90
19359;DHT22;9815;52.334;20.890;2023-03-01T07:51:54;0.70;99.90
19359;DHT22;9815;52.334;20.890;2023-03-01T07:54:22;0.90;99.90
19359;DHT22;9815;52.334;20.890;2023-03-01T07:56:50;1.00;99.90
19359;DHT22;9815;52.334;20.890;2023-03-01T07:59:18;1.20;99.90
19359;DHT22;9815;52.334;20.890;2023-03-01T08:01:48;1.40;99.90
19359;DHT22;9815;52.334;20.890;2023-03-01T08:04:16;1.50;99.90
19359;DHT22;9815;52.334;20.890;2023-03-01T08:06:44;1.60;99.90
19359;DHT22;9815;52.334;20.890;2023-03-01T08:09:12;1.70;99.90
19359;DHT22;9815;52.334;20.890;2023-03-01T08:11:40;1.90;99.90
19359;DHT22;9815;52.334;20.890;2023-03-01T08:14:08;2.10;99.90
19359;DHT22;9815;52.334;20.890;2023-03-01T08:16:37;2.40;99.90
19359;DHT22;9815;52.334;20.890;2023-03-01T08:19:07;2.50;99.90
19359;DHT22;9815;52.334;20.890;2023-03-01T08:21:36;2.70;99.90
19359;DHT22;9815;52.334;20.890;2023-03-01T08:24:05;2.80;99.90
19359;DHT22;9815;52.334;20.890;2023-03-01T08:26:33;2.90;99.90
19359;DHT22;9815;52.334;20.890;2023-03-01T08:29:02;3.10;99.90
19359;DHT22;9815;52.334;20.890;2023-03-01T08:31:32;3.00;99.90
19359;DHT22;9815;52.334;20.890;2023-03-01T08:34:06;3.20;99.90
19359;DHT22;9815;52.334;20.890;2023-03-01T08:36:39;3.20;99.90
19359;DHT22;9815;52.334;20.890;2023-03-01T08:39:08;3.30;99.90
19359;DHT22;9815;52.334;20.890;2023-03-01T08:41:37;3.30;99.90
19359;DHT22;9815;52.334;20.890;2023-03-01T08:44:06;3.50;99.90
19359;DHT22;9815;52.334;20.890;2023-03-01T08:46:36;3.70;99.90
19359;DHT22;9815;52.334;20.890;2023-03-01T08:49:05;3.70;99.90
19359;DHT22;9815;52.334;20.890;2023-03-01T08:51:34;3.80;99.90
19359;DHT22;9815;52.334;20.890;2023-03-01T08:54:05;4.00;99.90
19359;DHT22;9815;52.334;20.890;2023-03-01T08:56:33;4.00;99.90
19359;DHT22;9815;52.334;20.890;2023-03-01T08:59:01;4.00;99.90
19359;DHT22;9815;52.334;20.890;2023-03-01T09:01:29;4.10;99.90
19359;DHT22;9815;52.334;20.890;2023-03-01T09:03:58;4.10;99.90
19359;DHT22;9815;52.334;20.890;2023-03-01T09:06:26;4.00;99.90
19359;DHT22;9815;52.334;20.890;2023-03-01T09:08:54;4.20;99.90
19359;DHT22;9815;52.334;20.890;2023-03-01T09:11:23;4.50;99.90
19359;DHT22;9815;52.334;20.890;2023-03-01T09:13:51;4.60;99.90
19359;DHT22;9815;52.334;20.890;2023-03-01T09:16:21;4.70;99.90
19359;DHT22;9815;52.334;20.890;2023-03-01T09:18:49;4.70;99.90
19359;DHT22;9815;52.334;20.890;2023-03-01T09:21:19;4.80;99.90
19359;DHT22;9815;52.334;20.890;2023-03-01T09:24:05;4.90;99.90
19359;DHT22;9815;52.334;20.890;2023-03-01T09:26:34;5.00;99.90
19359;DHT22;9815;52.334;20.890;2023-03-01T09:29:02;4.80;99.90
19359;DHT22;9815;52.334;20.890;2023-03-01T09:31:30;5.00;99.90
19359;DHT22;9815;52.334;20.890;2023-03-01T09:33:58;4.90;99.90
19359;DHT22;9815;52.334;20.890;2023-03-01T09:36:26;5.10;99.90
19359;DHT22;9815;52.334;20.890;2023-03-01T09:38:56;5.20;99.20
19359;DHT22;9815;52.334;20.890;2023-03-01T09:41:45;5.20;99.90
19359;DHT22;9815;52.334;20.890;2023-03-01T09:44:42;5.30;98.90
19359;DHT22;9815;52.334;20.890;2023-03-01T09:47:16;5.40;98.70
19359;DHT22;9815;52.334;20.890;2023-03-01T09:49:53;5.50;97.20
19359;DHT22;9815;52.334;20.890;2023-03-01T09:52:28;5.80;96.00
19359;DHT22;9815;52.334;20.890;2023-03-01T09:54:57;6.10;96.10
19359;DHT22;9815;52.334;20.890;2023-03-01T09:57:33;6.40;95.00
19359;DHT22;9815;52.334;20.890;2023-03-01T10:00:23;6.70;92.20
19359;DHT22;9815;52.334;20.890;2023-03-01T10:02:58;7.00;85.40
19359;DHT22;9815;52.334;20.890;2023-03-01T10:05:36;7.10;84.00
19359;DHT22;9815;52.334;20.890;2023-03-01T10:11:04;7.40;79.00
19359;DHT22;9815;52.334;20.890;2023-03-01T10:13:45;7.30;78.20
19359;DHT22;9815;52.334;20.890;2023-03-01T10:16:18;7.70;79.20
19359;DHT22;9815;52.334;20.890;2023-03-01T10:18:55;8.00;75.30
19359;DHT22;9815;52.334;20.890;2023-03-01T10:21:25;7.90;74.50
19359;DHT22;9815;52.334;20.890;2023-03-01T10:23:53;8.10;72.60
19359;DHT22;9815;52.334;20.890;2023-03-01T10:26:37;8.10;70.40
19359;DHT22;9815;52.334;20.890;2023-03-01T10:29:09;8.10;69.70
19359;DHT22;9815;52.334;20.890;2023-03-01T10:31:40;8.40;68.70
19359;DHT22;9815;52.334;20.890;2023-03-01T10:34:11;8.70;65.30
19359;DHT22;9815;52.334;20.890;2023-03-01T10:36:41;8.80;64.50
19359;DHT22;9815;52.334;20.890;2023-03-01T10:39:15;8.60;64.30
19359;DHT22;9815;52.334;20.890;2023-03-01T10:42:01;8.50;66.60
19359;DHT22;9815;52.334;20.890;2023-03-01T10:44:51;8.90;63.80
19359;DHT22;9815;52.334;20.890;2023-03-01T10:47:21;9.00;63.60
19359;DHT22;9815;52.334;20.890;2023-03-01T10:50:02;8.80;63.70
19359;DHT22;9815;52.334;20.890;2023-03-01T10:52:33;8.90;63.00
19359;DHT22;9815;52.334;20.890;2023-03-01T10:55:04;9.00;63.70
19359;DHT22;9815;52.334;20.890;2023-03-01T10:57:47;9.20;61.80
19359;DHT22;9815;52.334;20.890;2023-03-01T11:00:23;8.90;62.50
19359;DHT22;9815;52.334;20.890;2023-03-01T11:03:04;8.90;62.90
19359;DHT22;9815;52.334;20.890;2023-03-01T11:05:51;8.80;65.00
19359;DHT22;9815;52.334;20.890;2023-03-01T11:08:38;9.20;62.80
19359;DHT22;9815;52.334;20.890;2023-03-01T11:11:29;9.50;60.00
19359;DHT22;9815;52.334;20.890;2023-03-01T11:14:00;9.90;58.30
19359;DHT22;9815;52.334;20.890;2023-03-01T11:16:41;10.20;55.90
19359;DHT22;9815;52.334;20.890;2023-03-01T11:19:19;10.40;53.90
19359;DHT22;9815;52.334;20.890;2023-03-01T11:21:56;10.00;55.40
19359;DHT22;9815;52.334;20.890;2023-03-01T11:24:34;10.10;55.30
19359;DHT22;9815;52.334;20.890;2023-03-01T11:27:11;10.30;55.00
19359;DHT22;9815;52.334;20.890;2023-03-01T11:29:44;9.70;56.80
19359;DHT22;9815;52.334;20.890;2023-03-01T11:32:16;9.40;62.10
19359;DHT22;9815;52.334;20.890;2023-03-01T11:34:48;9.50;63.60
19359;DHT22;9815;52.334;20.890;2023-03-01T11:37:28;9.60;65.50
19359;DHT22;9815;52.334;20.890;2023-03-01T11:40:10;9.60;64.70
19359;DHT22;9815;52.334;20.890;2023-03-01T11:42:50;9.50;66.00
19359;DHT22;9815;52.334;20.890;2023-03-01T11:45:23;9.70;65.10
19359;DHT22;9815;52.334;20.890;2023-03-01T11:48:05;9.70;64.00
19359;DHT22;9815;52.334;20.890;2023-03-01T11:50:40;9.90;62.30
19359;DHT22;9815;52.334;20.890;2023-03-01T11:53:44;10.40;61.00
19359;DHT22;9815;52.334;20.890;2023-03-01T11:56:26;10.60;57.40
19359;DHT22;9815;52.334;20.890;2023-03-01T11:59:18;10.10;59.60
19359;DHT22;9815;52.334;20.890;2023-03-01T12:02:08;10.50;58.50
19359;DHT22;9815;52.334;20.890;2023-03-01T12:05:05;10.60;56.50
19359;DHT22;9815;52.334;20.890;2023-03-01T12:07:44;10.30;57.00
19359;DHT22;9815;52.334;20.890;2023-03-01T12:10:23;10.40;58.00
19359;DHT22;9815;52.334;20.890;2023-03-01T12:13:01;10.40;56.50
19359;DHT22;9815;52.334;20.890;2023-03-01T12:21:30;9.30;66.70
19359;DHT22;9815;52.334;20.890;2023-03-01T12:24:22;9.30;66.40
19359;DHT22;9815;52.334;20.890;2023-03-01T12:27:08;9.40;65.30
19359;DHT22;9815;52.334;20.890;2023-03-01T12:29:41;9.30;66.90
19359;DHT22;9815;52.334;20.890;2023-03-01T12:32:33;9.30;68.80
19359;DHT22;9815;52.334;20.890;2023-03-01T12:38:02;9.60;69.50
19359;DHT22;9815;52.334;20.890;2023-03-01T12:40:42;9.50;69.60
19359;DHT22;9815;52.334;20.890;2023-03-01T12:43:22;9.70;70.50
19359;DHT22;9815;52.334;20.890;2023-03-01T12:46:06;9.20;72.10
19359;DHT22;9815;52.334;20.890;2023-03-01T12:48:45;9.60;73.30
19359;DHT22;9815;52.334;20.890;2023-03-01T12:51:15;9.70;69.00
19359;DHT22;9815;52.334;20.890;2023-03-01T12:53:48;9.60;68.60
19359;DHT22;9815;52.334;20.890;2023-03-01T12:56:19;9.70;68.50
19359;DHT22;9815;52.334;20.890;2023-03-01T12:58:55;9.80;68.50
19359;DHT22;9815;52.334;20.890;2023-03-01T13:01:34;9.40;70.60
19359;DHT22;9815;52.334;20.890;2023-03-01T13:04:16;9.60;70.30
19359;DHT22;9815;52.334;20.890;2023-03-01T13:06:52;9.40;71.30
19359;DHT22;9815;52.334;20.890;2023-03-01T13:09:29;9.40;71.30
19359;DHT22;9815;52.334;20.890;2023-03-01T13:12:01;9.20;72.80
19359;DHT22;9815;52.334;20.890;2023-03-01T13:14:45;9.60;72.70
19359;DHT22;9815;52.334;20.890;2023-03-01T13:17:39;9.70;68.80
19359;DHT22;9815;52.334;20.890;2023-03-01T13:20:15;9.40;69.80
19359;DHT22;9815;52.334;20.890;2023-03-01T13:22:45;9.30;72.70
19359;DHT22;9815;52.334;20.890;2023-03-01T13:25:21;8.80;76.00
19359;DHT22;9815;52.334;20.890;2023-03-01T13:30:55;8.50;82.80
19359;DHT22;9815;52.334;20.890;2023-03-01T13:33:39;8.10;90.20
19359;DHT22;9815;52.334;20.890;2023-03-01T13:36:08;7.80;92.60
19359;DHT22;9815;52.334;20.890;2023-03-01T13:38:46;7.70;94.40
19359;DHT22;9815;52.334;20.890;2023-03-01T13:41:17;7.80;94.30
19359;DHT22;9815;52.334;20.890;2023-03-01T13:43:46;7.60;95.30
19359;DHT22;9815;52.334;20.890;2023-03-01T13:46:18;7.90;94.10
19359;DHT22;9815;52.334;20.890;2023-03-01T13:48:50;7.80;94.30
19359;DHT22;9815;52.334;20.890;2023-03-01T13:51:23;8.10;93.20
19359;DHT22;9815;52.334;20.890;2023-03-01T13:53:53;8.20;91.90
19359;DHT22;9815;52.334;20.890;2023-03-01T13:56:25;8.20;91.80
19359;DHT22;9815;52.334;20.890;2023-03-01T13:58:59;8.20;91.60
19359;DHT22;9815;52.334;20.890;2023-03-01T14:01:31;8.00;93.10
19359;DHT22;9815;52.334;20.890;2023-03-01T14:04:00;7.80;95.00
19359;DHT22;9815;52.334;20.890;2023-03-01T14:06:30;7.70;95.20
19359;DHT22;9815;52.334;20.890;2023-03-01T14:09:08;7.60;97.20
19359;DHT22;9815;52.334;20.890;2023-03-01T14:11:54;7.70;97.20
19359;DHT22;9815;52.334;20.890;2023-03-01T14:14:45;7.50;98.10
19359;DHT22;9815;52.334;20.890;2023-03-01T14:17:47;7.60;97.90
19359;DHT22;9815;52.334;20.890;2023-03-01T14:20:21;7.60;98.60
19359;DHT22;9815;52.334;20.890;2023-03-01T14:22:52;7.70;97.60
19359;DHT22;9815;52.334;20.890;2023-03-01T14:25:24;7.50;98.60
19359;DHT22;9815;52.334;20.890;2023-03-01T14:27:59;7.40;99.00
19359;DHT22;9815;52.334;20.890;2023-03-01T14:30:34;7.30;99.90
19359;DHT22;9815;52.334;20.890;2023-03-01T14:33:06;7.10;99.90
19359;DHT22;9815;52.334;20.890;2023-03-01T14:35:35;6.90;99.90
19359;DHT22;9815;52.334;20.890;2023-03-01T14:38:04;6.80;99.90
19359;DHT22;9815;52.334;20.890;2023-03-01T14:40:33;6.70;99.90
19359;DHT22;9815;52.334;20.890;2023-03-01T14:43:10;6.70;99.90
19359;DHT22;9815;52.334;20.890;2023-03-01T14:45:39;6.70;99.90
19359;DHT22;9815;52.334;20.890;2023-03-01T14:48:07;6.60;99.90
19359;DHT22;9815;52.334;20.890;2023-03-01T14:50:40;6.60;99.90
19359;DHT22;9815;52.334;20.890;2023-03-01T14:53:16;6.60;99.90
19359;DHT22;9815;52.334;20.890;2023-03-01T14:55:48;6.50;99.90
19359;DHT22;9815;52.334;20.890;2023-03-01T14:58:21;6.50;99.90
19359;DHT22;9815;52.334;20.890;2023-03-01T15:00:54;6.50;99.90
19359;DHT22;9815;52.334;20.890;2023-03-01T15:03:30;6.50;99.90
19359;DHT22;9815;52.334;20.890;2023-03-01T15:06:00;6.50;99.90
19359;DHT22;9815;52.334;20.890;2023-03-01T15:08:29;6.60;99.90
19359;DHT22;9815;52.334;20.890;2023-03-01T15:11:01;6.60;99.90
19359;DHT22;9815;52.334;20.890;2023-03-01T15:13:33;6.50;99.90
19359;DHT22;9815;52.334;20.890;2023-03-01T15:16:06;6.40;99.90
19359;DHT22;9815;52.334;20.890;2023-03-01T15:18:36;6.20;99.90
19359;DHT22;9815;52.334;20.890;2023-03-01T15:21:09;6.10;99.90
19359;DHT22;9815;52.334;20.890;2023-03-01T15:23:38;6.00;99.90
19359;DHT22;9815;52.334;20.890;2023-03-01T15:26:22;6.00;99.90
19359;DHT22;9815;52.334;20.890;2023-03-01T15:28:54;5.90;99.90
19359;DHT22;9815;52.334;20.890;2023-03-01T15:31:27;5.80;99.90
19359;DHT22;9815;52.334;20.890;2023-03-01T15:34:19;5.70;99.90
19359;DHT22;9815;52.334;20.890;2023-03-01T15:36:49;5.60;99.90
19359;DHT22;9815;52.334;20.890;2023-03-01T15:39:37;5.50;99.90
19359;DHT22;9815;52.334;20.890;2023-03-01T15:42:07;5.40;99.90
19359;DHT22;9815;52.334;20.890;2023-03-01T15:44:39;5.40;99.90
19359;DHT22;9815;52.334;20.890;2023-03-01T15:47:24;5.30;99.90
19359;DHT22;9815;52.334;20.890;2023-03-01T15:49:54;5.20;99.90
19359;DHT22;9815;52.334;20.890;2023-03-01T15:52:25;5.10;99.90
19359;DHT22;9815;52.334;20.890;2023-03-01T15:54:58;5.00;99.90
19359;DHT22;9815;52.334;20.890;2023-03-01T15:57:45;4.90;99.90
19359;DHT22;9815;52.334;20.890;2023-03-01T16:00:16;4.80;99.90
19359;DHT22;9815;52.334;20.890;2023-03-01T16:02:44;4.70;99.90
19359;DHT22;9815;52.334;20.890;2023-03-01T16:05:17;4.60;99.90
19359;DHT22;9815;52.334;20.890;2023-03-01T16:07:46;4.60;99.90
19359;DHT22;9815;52.334;20.890;2023-03-01T16:10:14;4.50;99.90
19359;DHT22;9815;52.334;20.890;2023-03-01T16:12:42;4.40;99.90
19359;DHT22;9815;52.334;20.890;2023-03-01T16:15:17;4.30;99.90
19359;DHT22;9815;52.334;20.890;2023-03-01T16:17:45;4.20;99.90
19359;DHT22;9815;52.334;20.890;2023-03-01T16:20:21;4.10;99.90
19359;DHT22;9815;52.334;20.890;2023-03-01T16:22:57;3.90;99.90
19359;DHT22;9815;52.334;20.890;2023-03-01T16:25:27;3.80;99.90